Aonach Mor, United Kingdom
Current Conditions -  °F | °C
As of 4:50 AM on Friday 31 Oct 2014 (Local Time) from EGPE Reporting Station
Few Clouds Few Clouds  
Wind Chill: 48°   Ceiling: Unl
Heat Index: 48°   Visibility: 6mi
Dew Point: 48°   Wind: 0mph
Humidity: 100%   Direction: NA
Pressure: 29.71"   Gusts: NA
Location:  56.82°N, 4.97°W
Report Text: EGPE 310450Z 00000KT 9999 FEW010 09/09 Q1006
Loading
Personal Weather Stations






























Interactive Weather Map
Tropical Storm Tracking
New forecast layout! Learn more

10-Day Weather Forecast

Advertisements
Track Severe Weather on mobile